Time;durP1;ratioP1;P1;durP2;ratioP2;P2;SDS_P1;SDS_P2;PMS_P1;PMS_P2;Temp;Humidity;BMP_temperature;BMP_pressure;BME280_temperature;BME280_humidity;BME280_pressure;Samples;Min_cycle;Max_cycle;Signal;HPM_P1;HPM_P2
2023/09/21 00:00:25;;;;;;;5.03;2.47;;;;;;;17.21;83.03;99818.03;5353263;27;20104;-85
2023/09/21 00:02:56;;;;;;;4.07;2.47;;;;;;;17.19;83.70;99810.22;5372949;27;20417;-84
2023/09/21 00:05:30;;;;;;;3.83;2.70;;;;;;;17.22;82.95;99815.31;5354722;27;20092;-84
2023/09/21 00:08:02;;;;;;;6.85;2.50;;;;;;;17.22;82.94;99806.59;5352441;27;20030;-86
2023/09/21 00:10:34;;;;;;;5.93;2.67;;;;;;;17.21;82.82;99797.84;5353280;27;20481;-86
2023/09/21 00:13:05;;;;;;;7.20;2.75;;;;;;;17.23;82.94;99805.66;5353177;27;20473;-86
2023/09/21 00:15:38;;;;;;;3.67;2.67;;;;;;;17.23;82.68;99805.66;5371728;27;20031;-87
2023/09/21 00:18:09;;;;;;;6.85;2.58;;;;;;;17.24;82.56;99799.44;5352952;27;20067;-85
2023/09/21 00:23:13;;;;;;;5.20;2.37;;;;;;;17.25;82.35;99803.78;5370644;27;20058;-84
2023/09/21 00:25:44;;;;;;;6.43;2.30;;;;;;;17.25;82.11;99793.25;5371143;27;20056;-84
2023/09/21 00:28:19;;;;;;;6.33;2.70;;;;;;;17.23;81.94;99785.44;5370629;27;20038;-85
2023/09/21 00:30:57;;;;;;;4.15;2.28;;;;;;;17.24;82.16;99787.13;5352705;27;20053;-84
2023/09/21 00:33:33;;;;;;;3.00;2.00;;;;;;;17.23;82.12;99776.69;5352598;27;20031;-84
2023/09/21 00:36:05;;;;;;;4.28;2.15;;;;;;;17.23;82.05;99780.16;5371530;27;20489;-84
2023/09/21 00:38:37;;;;;;;6.00;2.40;;;;;;;17.22;82.06;99770.56;5370908;27;20034;-84
2023/09/21 00:41:09;;;;;;;3.58;2.33;;;;;;;17.25;82.17;99764.28;5371094;27;20030;-84
2023/09/21 00:43:41;;;;;;;5.33;2.37;;;;;;;17.24;81.75;99754.66;5371294;27;20038;-85
2023/09/21 00:46:13;;;;;;;3.30;2.08;;;;;;;17.27;81.43;99754.50;5375745;27;20316;-84
2023/09/21 00:48:44;;;;;;;3.55;2.35;;;;;;;17.36;81.03;99756.59;5383210;27;20026;-84
2023/09/21 00:51:16;;;;;;;7.63;2.50;;;;;;;17.27;81.34;99743.97;5390996;27;20027;-85
2023/09/21 00:53:48;;;;;;;5.47;2.53;;;;;;;17.26;81.62;99742.28;5392687;27;20044;-85
2023/09/21 00:56:20;;;;;;;4.30;2.20;;;;;;;17.24;81.61;99741.50;5393643;27;20019;-85
2023/09/21 00:58:53;;;;;;;7.65;2.33;;;;;;;17.26;81.38;99740.50;5372734;27;20449;-84
2023/09/21 01:01:27;;;;;;;4.05;2.45;;;;;;;17.28;80.83;99740.41;5373825;27;20087;-85
2023/09/21 01:04:06;;;;;;;6.43;2.50;;;;;;;17.28;80.47;99732.50;5369700;27;20037;-85
2023/09/21 01:06:39;;;;;;;3.38;2.10;;;;;;;17.28;80.19;99728.06;5370328;27;20042;-84
2023/09/21 01:09:17;;;;;;;4.13;2.20;;;;;;;17.36;79.88;99725.00;5369868;27;20038;-84
2023/09/21 01:11:49;;;;;;;7.40;2.10;;;;;;;17.42;79.17;99721.16;5369859;27;20069;-83
2023/09/21 01:14:20;;;;;;;5.55;3.13;;;;;;;17.48;78.58;99726.94;5351213;27;20446;-84
2023/09/21 01:16:52;;;;;;;3.70;2.00;;;;;;;17.56;77.61;99712.44;5369705;27;20031;-83
2023/09/21 01:19:23;;;;;;;2.70;2.20;;;;;;;17.60;77.26;99709.53;5369718;27;20050;-84
2023/09/21 01:21:59;;;;;;;2.53;2.10;;;;;;;17.73;76.29;99707.03;5369528;27;20034;-84
2023/09/21 01:24:31;;;;;;;5.65;2.33;;;;;;;17.78;75.80;99701.47;5335671;27;20125;-83
2023/09/21 01:27:02;;;;;;;4.43;2.57;;;;;;;17.80;75.53;99707.50;5369485;27;20114;-83
2023/09/21 01:29:33;;;;;;;6.83;2.13;;;;;;;17.87;75.08;99698.28;5369224;27;20466;-85
2023/09/21 01:32:05;;;;;;;5.10;2.63;;;;;;;17.96;74.51;99700.38;5369901;27;20031;-83
2023/09/21 01:34:36;;;;;;;4.93;2.53;;;;;;;18.07;73.76;99691.81;5370435;27;20069;-83
2023/09/21 01:37:08;;;;;;;3.57;2.33;;;;;;;18.05;73.60;99693.72;5373108;27;20064;-83
2023/09/21 01:39:39;;;;;;;6.50;1.90;;;;;;;18.02;73.56;99680.72;5371635;27;20365;-83
2023/09/21 01:42:11;;;;;;;3.13;1.90;;;;;;;18.04;73.15;99676.19;5374083;27;20656;-84
2023/09/21 01:44:42;;;;;;;5.93;2.77;;;;;;;18.09;72.90;99678.53;5372640;27;20030;-84
2023/09/21 01:47:15;;;;;;;3.83;2.30;;;;;;;18.02;73.25;99683.34;5372981;27;20103;-83
2023/09/21 01:49:46;;;;;;;;;;;;;;;18.02;73.31;99672.81;5355497;27;20346;-84
2023/09/21 01:52:18;;;;;;;4.68;2.15;;;;;;;17.96;73.41;99671.38;5352384;27;19941;-84
2023/09/21 01:54:49;;;;;;;4.40;2.20;;;;;;;17.97;73.15;99666.97;5355381;27;20423;-85
2023/09/21 01:57:21;;;;;;;4.43;2.10;;;;;;;17.90;73.51;99677.03;5351744;27;20035;-85
2023/09/21 01:59:52;;;;;;;5.37;2.17;;;;;;;17.83;73.84;99668.63;5352061;27;20106;-85
2023/09/21 02:02:24;;;;;;;4.70;2.37;;;;;;;17.90;73.10;99660.38;5352675;27;20054;-84
2023/09/21 02:04:55;;;;;;;4.30;2.30;;;;;;;17.90;73.02;99663.84;5334753;27;20028;-84
2023/09/21 02:07:28;;;;;;;2.38;1.73;;;;;;;17.89;73.14;99666.56;5352207;27;20035;-84
2023/09/21 02:10:01;;;;;;;6.00;2.35;;;;;;;17.90;73.00;99666.47;5374434;27;20030;-83
2023/09/21 02:12:37;;;;;;;3.22;1.88;;;;;;;17.88;73.23;99659.63;5374996;27;20530;-84
2023/09/21 02:15:12;;;;;;;4.68;2.33;;;;;;;17.84;73.82;99659.78;5355463;27;20481;-83
2023/09/21 02:17:44;;;;;;;3.92;1.85;;;;;;;17.85;73.53;99653.56;5374489;27;20022;-83
2023/09/21 02:20:16;;;;;;;;;;;;;;;17.79;73.88;99660.97;5373117;27;20042;-82
2023/09/21 02:22:51;;;;;;;5.88;1.98;;;;;;;17.89;73.10;99662.16;5353465;27;19915;-83
2023/09/21 02:25:24;;;;;;;3.92;2.30;;;;;;;17.81;73.79;99653.84;5354087;27;20087;-83
2023/09/21 02:27:55;;;;;;;;;;;;;;;17.81;73.95;99646.78;5372492;27;20404;-83
2023/09/21 02:30:32;;;;;;;4.05;1.92;;;;;;;17.74;74.09;99655.16;5373321;27;19911;-84
2023/09/21 02:33:10;;;;;;;5.43;2.67;;;;;;;17.65;74.30;99641.59;5374379;27;20071;-86
2023/09/21 02:35:41;;;;;;;4.32;2.70;;;;;;;17.65;74.55;99635.47;5375700;27;20031;-86
2023/09/21 02:38:13;;;;;;;5.73;1.83;;;;;;;17.65;74.94;99648.66;5373945;27;20057;-84
2023/09/21 02:40:45;;;;;;;3.97;2.08;;;;;;;17.68;74.44;99640.56;5373843;27;20031;-85
2023/09/21 02:43:17;;;;;;;5.32;2.10;;;;;;;17.68;74.12;99624.75;5355743;27;20370;-84
2023/09/21 02:45:49;;;;;;;3.33;1.90;;;;;;;17.69;74.47;99636.97;5372638;27;20086;-85
2023/09/21 02:48:20;;;;;;;4.23;2.00;;;;;;;17.68;74.53;99637.94;5354286;27;20077;-84
2023/09/21 02:50:52;;;;;;;4.10;2.13;;;;;;;17.62;74.92;99633.88;5372472;27;20268;-85
2023/09/21 02:53:23;;;;;;;4.73;2.17;;;;;;;17.64;74.92;99639.03;5371030;27;20422;-84
2023/09/21 02:55:55;;;;;;;3.63;2.00;;;;;;;17.57;75.80;99633.31;5372249;27;20031;-84
2023/09/21 02:58:26;;;;;;;3.30;1.87;;;;;;;17.61;74.68;99629.56;5372599;27;20023;-86
2023/09/21 03:00:57;;;;;;;4.43;2.23;;;;;;;17.63;74.55;99637.38;5353951;27;20041;-84
2023/09/21 03:03:30;;;;;;;4.00;2.03;;;;;;;17.60;75.35;99627.00;5372529;27;20385;-83
2023/09/21 03:06:01;;;;;;;;;;;;;;;17.53;75.17;99623.88;5355978;27;20058;-83
2023/09/21 03:08:33;;;;;;;3.60;2.13;;;;;;;17.53;75.27;99618.59;5376738;27;19911;-82
2023/09/21 03:11:09;;;;;;;3.47;2.25;;;;;;;17.56;74.87;99615.78;5377681;27;20031;-81
2023/09/21 03:13:40;;;;;;;2.80;1.92;;;;;;;17.47;76.55;99613.72;5386037;27;20030;-82
2023/09/21 03:16:13;;;;;;;4.23;2.47;;;;;;;17.52;76.03;99619.56;5394865;27;20035;-82
2023/09/21 03:18:47;;;;;;;3.83;2.33;;;;;;;17.54;75.53;99619.47;5376522;27;20031;-82
2023/09/21 03:21:19;;;;;;;5.55;2.22;;;;;;;17.55;75.94;99626.41;5380683;27;20085;-82
2023/09/21 03:23:52;;;;;;;;;;;;;;;17.53;75.85;99623.03;5371727;27;20037;-83
2023/09/21 03:26:25;;;;;;;2.92;2.10;;;;;;;17.49;75.75;99611.84;5370773;27;19915;-82
2023/09/21 03:28:56;;;;;;;5.15;2.88;;;;;;;17.54;75.87;99611.56;5352512;27;20023;-84
2023/09/21 03:31:28;;;;;;;2.57;2.00;;;;;;;17.53;75.68;99612.50;5370849;27;20435;-84
2023/09/21 03:34:02;;;;;;;4.55;2.38;;;;;;;17.50;76.45;99608.28;5352130;27;20027;-82
2023/09/21 03:36:38;;;;;;;3.05;1.80;;;;;;;17.56;75.80;99617.59;5352149;27;20034;-83
2023/09/21 03:39:10;;;;;;;6.10;2.10;;;;;;;17.49;76.32;99610.03;5370685;27;20034;-83
2023/09/21 03:41:41;;;;;;;3.67;2.10;;;;;;;17.50;76.54;99611.75;5370319;27;20465;-83
2023/09/21 03:44:12;;;;;;;3.63;2.20;;;;;;;17.56;75.93;99617.59;5352113;27;20309;-85
2023/09/21 03:46:44;;;;;;;2.80;1.83;;;;;;;17.58;76.24;99605.16;5351439;27;20129;-84
2023/09/21 03:49:15;;;;;;;3.37;2.07;;;;;;;17.67;75.45;99610.72;5371139;27;20080;-84
2023/09/21 03:51:47;;;;;;;2.97;2.03;;;;;;;17.66;76.04;99603.75;5353321;27;20027;-82
2023/09/21 03:54:18;;;;;;;5.35;2.25;;;;;;;17.72;75.55;99596.41;5370585;27;20367;-82
2023/09/21 03:56:50;;;;;;;4.53;2.40;;;;;;;17.76;75.54;99597.91;5352094;27;20025;-83
2023/09/21 03:59:22;;;;;;;3.13;2.03;;;;;;;17.76;75.38;99592.63;5352184;27;20031;-83
2023/09/21 04:01:53;;;;;;;3.67;1.90;;;;;;;17.77;75.44;99592.53;5370377;27;20038;-82
2023/09/21 04:04:25;;;;;;;5.20;1.93;;;;;;;17.75;75.39;99589.16;5369397;27;20086;-80
2023/09/21 04:06:57;;;;;;;3.17;2.10;;;;;;;17.83;74.75;99579.00;5371623;27;20031;-81
2023/09/21 04:09:29;;;;;;;3.70;2.27;;;;;;;17.89;75.12;99587.47;5353288;27;20030;-81
2023/09/21 04:12:01;;;;;;;2.53;1.77;;;;;;;17.92;74.98;99585.53;5354887;27;20276;-82
2023/09/21 04:14:32;;;;;;;3.67;1.87;;;;;;;17.96;74.63;99591.44;5382795;27;20037;-82
2023/09/21 04:17:04;;;;;;;5.17;2.00;;;;;;;18.00;74.56;99579.75;5376326;27;20030;-83
2023/09/21 04:19:35;;;;;;;3.90;1.90;;;;;;;18.01;74.69;99592.00;5370831;27;20268;-82
2023/09/21 04:22:07;;;;;;;5.07;2.50;;;;;;;18.04;75.08;99591.81;5370194;27;20031;-83
2023/09/21 04:24:39;;;;;;;3.77;2.03;;;;;;;18.08;74.90;99580.13;5369890;27;20029;-83
2023/09/21 04:27:11;;;;;;;5.00;2.10;;;;;;;18.05;75.20;99596.16;5370753;27;20061;-84
2023/09/21 04:29:42;;;;;;;3.95;2.25;;;;;;;18.06;75.11;99578.53;5370916;27;20491;-79
2023/09/21 04:32:14;;;;;;;3.97;2.00;;;;;;;18.13;74.45;99585.97;5353227;27;20030;-85
2023/09/21 04:34:45;;;;;;;7.33;2.40;;;;;;;18.07;75.26;99586.34;5352962;27;20057;-86
2023/09/21 04:37:16;;;;;;;4.27;2.30;;;;;;;18.11;74.86;99585.22;5375071;27;20027;-87
2023/09/21 04:39:50;;;;;;;2.97;1.90;;;;;;;18.11;75.15;99584.34;5374245;27;20035;-86
2023/09/21 04:42:22;;;;;;;3.85;2.30;;;;;;;18.05;75.73;99577.69;5371163;27;20019;-86
2023/09/21 04:44:55;;;;;;;3.67;2.20;;;;;;;18.10;75.50;99575.59;5371880;27;20094;-86
2023/09/21 04:47:27;;;;;;;;;;;;;;;18.11;75.42;99584.34;5349604;27;20074;-86
2023/09/21 04:49:58;;;;;;;3.00;2.00;;;;;;;18.03;76.99;99577.78;5350331;27;20482;-87
2023/09/21 04:52:36;;;;;;;3.67;1.93;;;;;;;17.97;77.54;99572.91;5350087;27;20118;-85
2023/09/21 04:55:08;;;;;;;3.70;2.40;;;;;;;17.81;78.58;99572.97;5351320;27;20486;-87
2023/09/21 04:57:40;;;;;;;4.22;2.38;;;;;;;17.79;78.73;99568.72;5350021;28;20027;-86
2023/09/21 05:00:13;;;;;;;4.40;2.37;;;;;;;17.92;78.29;99571.47;5350256;28;20444;-87
2023/09/21 05:02:45;;;;;;;5.50;2.40;;;;;;;18.01;77.71;99563.84;5352023;27;20031;-88
2023/09/21 05:05:17;;;;;;;6.57;2.10;;;;;;;17.97;78.89;99574.69;5348956;27;20035;-87
2023/09/21 05:07:49;;;;;;;5.82;2.38;;;;;;;17.90;79.54;99576.00;5350470;27;20033;-86
2023/09/21 05:10:20;;;;;;;8.07;3.03;;;;;;;17.89;79.95;99571.66;5352003;27;20397;-85
2023/09/21 05:12:52;;;;;;;5.67;2.33;;;;;;;17.93;79.16;99560.84;5352597;27;20034;-86
2023/09/21 05:15:24;;;;;;;2.83;1.87;;;;;;;17.93;79.62;99554.72;5354451;27;20031;-85
2023/09/21 05:17:56;;;;;;;5.35;2.42;;;;;;;17.94;79.76;99553.78;5353061;27;20039;-87
2023/09/21 05:20:28;;;;;;;6.22;2.08;;;;;;;18.00;79.37;99548.97;5354070;27;20050;-87
2023/09/21 05:22:59;;;;;;;4.10;2.20;;;;;;;18.02;78.89;99552.34;5354165;27;20047;-86
2023/09/21 05:25:31;;;;;;;4.23;2.43;;;;;;;18.10;78.46;99553.66;5354854;27;20027;-85
2023/09/21 05:28:02;;;;;;;5.23;2.70;;;;;;;18.15;78.59;99555.06;5339610;27;20031;-85
2023/09/21 05:30:34;;;;;;;3.77;2.20;;;;;;;18.21;77.97;99554.66;5345407;27;20340;-84
2023/09/21 05:33:07;;;;;;;3.70;2.23;;;;;;;18.23;77.81;99544.84;5369659;27;20398;-87
2023/09/21 05:35:38;;;;;;;3.50;2.20;;;;;;;18.33;77.07;99557.47;5373220;27;20145;-87
2023/09/21 05:38:09;;;;;;;4.53;2.53;;;;;;;18.35;77.12;99551.16;5356981;27;20087;-87
2023/09/21 05:40:41;;;;;;;3.77;2.20;;;;;;;18.35;77.51;99558.19;5358824;27;20381;-85
2023/09/21 05:43:13;;;;;;;18.17;2.90;;;;;;;18.41;77.25;99552.53;5354331;27;20538;-84
2023/09/21 05:45:44;;;;;;;3.78;2.17;;;;;;;18.43;77.46;99545.34;5358569;27;20061;-85
2023/09/21 05:48:17;;;;;;;8.48;2.60;;;;;;;18.45;77.53;99554.03;5376500;27;20030;-86
2023/09/21 05:50:49;;;;;;;4.95;2.28;;;;;;;18.53;76.83;99545.59;5360318;27;20465;-83
2023/09/21 05:53:22;;;;;;;4.30;2.80;;;;;;;18.46;77.83;99549.59;5376939;27;20054;-86
2023/09/21 05:55:53;;;;;;;;;;;;;;;18.51;77.76;99552.78;5377316;27;20030;-84
2023/09/21 05:58:25;;;;;;;4.40;2.47;;;;;;;18.38;78.96;99550.09;5375021;27;19963;-83
2023/09/21 06:00:59;;;;;;;5.93;2.20;;;;;;;18.32;79.48;99551.34;5359323;27;20030;-86
2023/09/21 06:03:31;;;;;;;7.43;2.38;;;;;;;18.27;80.67;99558.69;5374183;27;20457;-84
2023/09/21 06:06:06;;;;;;;5.20;2.38;;;;;;;18.15;81.85;99549.78;5340078;27;20075;-84
2023/09/21 06:08:38;;;;;;;6.10;3.25;;;;;;;18.08;82.61;99551.13;5357019;27;20041;-83
2023/09/21 06:11:09;;;;;;;4.43;2.60;;;;;;;17.96;84.37;99565.09;5375272;27;20465;-84
2023/09/21 06:13:40;;;;;;;7.90;3.13;;;;;;;17.56;89.45;99559.63;5358614;27;20054;-86
2023/09/21 06:16:12;;;;;;;4.73;2.87;;;;;;;17.11;91.16;99564.94;5376078;27;20069;-86
2023/09/21 06:18:43;;;;;;;5.17;2.93;;;;;;;16.76;94.99;99560.78;5375057;27;20037;-84
2023/09/21 06:21:16;;;;;;;8.07;3.40;;;;;;;16.43;98.34;99571.44;5378372;27;20027;-85
2023/09/21 06:23:49;;;;;;;10.10;3.42;;;;;;;16.22;100.00;99565.63;5389355;27;20030;-86
2023/09/21 06:26:22;;;;;;;5.20;2.65;;;;;;;16.22;100.00;99562.97;5388652;27;20034;-83
2023/09/21 06:28:54;;;;;;;7.60;3.15;;;;;;;16.13;100.00;99556.47;5358246;27;20022;-85
2023/09/21 06:31:26;;;;;;;8.37;3.23;;;;;;;16.07;100.00;99569.06;5359188;27;20385;-85
2023/09/21 06:34:01;;;;;;;5.40;2.97;;;;;;;16.16;100.00;99568.56;5357604;27;20427;-85
2023/09/21 06:36:33;;;;;;;8.10;3.15;;;;;;;16.17;100.00;99567.66;5375137;27;20034;-83
2023/09/21 06:39:05;;;;;;;;;;;;;;;16.20;100.00;99568.31;5375178;27;20031;-83
2023/09/21 06:41:37;;;;;;;6.82;3.10;;;;;;;16.43;100.00;99566.19;5374407;27;19972;-86
2023/09/21 06:44:09;;;;;;;6.45;2.97;;;;;;;16.60;100.00;99559.97;5375803;27;20027;-82
2023/09/21 06:46:50;;;;;;;6.30;2.90;;;;;;;16.52;100.00;99567.47;5355960;27;20061;-84
2023/09/21 06:49:21;;;;;;;6.07;3.10;;;;;;;16.49;100.00;99571.09;5375587;27;20027;-82
2023/09/21 06:51:54;;;;;;;5.33;2.93;;;;;;;16.44;100.00;99580.19;5375427;27;20023;-82
2023/09/21 06:54:26;;;;;;;7.53;3.17;;;;;;;16.46;100.00;99594.09;5374952;27;20289;-83
2023/09/21 06:57:03;;;;;;;;;;;;;;;16.35;100.00;99595.53;5374446;27;20037;-83
2023/09/21 06:59:36;;;;;;;4.90;3.30;;;;;;;16.18;100.00;99593.88;5373543;27;20249;-81
2023/09/21 07:02:07;;;;;;;6.65;3.40;;;;;;;16.01;100.00;99589.50;5355748;27;20043;-83
2023/09/21 07:04:39;;;;;;;8.27;4.10;;;;;;;15.98;100.00;99594.94;5374765;27;20122;-81
2023/09/21 07:07:11;;;;;;;6.97;3.43;;;;;;;15.86;100.00;99585.09;5355417;27;20153;-81
2023/09/21 07:09:44;;;;;;;5.47;3.10;;;;;;;15.82;100.00;99581.78;5374047;27;20027;-82
2023/09/21 07:12:17;;;;;;;8.07;3.50;;;;;;;15.82;100.00;99591.44;5356461;27;20031;-83
2023/09/21 07:14:50;;;;;;;5.45;3.35;;;;;;;15.81;100.00;99581.84;5374552;27;20500;-82
2023/09/21 07:17:22;;;;;;;7.90;3.63;;;;;;;15.77;100.00;99580.34;5374811;27;20066;-82
2023/09/21 07:19:55;;;;;;;7.57;3.83;;;;;;;15.77;100.00;99575.09;5320998;27;20026;-82
2023/09/21 07:22:26;;;;;;;5.57;3.80;;;;;;;15.77;100.00;99570.66;5354826;27;20030;-82
2023/09/21 07:24:58;;;;;;;7.93;4.30;;;;;;;15.79;100.00;99574.09;5373949;27;20047;-82
2023/09/21 07:27:30;;;;;;;7.18;4.10;;;;;;;15.83;100.00;99570.34;5376090;27;20075;-82
2023/09/21 07:30:04;;;;;;;7.93;4.27;;;;;;;15.92;100.00;99570.78;5373301;27;20034;-81
2023/09/21 07:32:35;;;;;;;8.13;3.78;;;;;;;15.91;100.00;99571.72;5354484;27;20042;-81
2023/09/21 07:35:07;;;;;;;6.47;3.47;;;;;;;15.89;100.00;99569.19;5375080;27;20426;-82
2023/09/21 07:37:38;;;;;;;7.40;4.47;;;;;;;15.88;100.00;99572.72;5374659;27;20144;-83
2023/09/21 07:40:12;;;;;;;6.87;3.57;;;;;;;15.90;100.00;99570.00;5375513;27;20026;-83
2023/09/21 07:42:45;;;;;;;7.07;3.15;;;;;;;15.94;100.00;99577.66;5375906;27;20481;-83
2023/09/21 07:45:16;;;;;;;7.00;3.60;;;;;;;15.94;100.00;99582.91;5383731;27;20026;-82
2023/09/21 07:47:49;;;;;;;5.13;3.57;;;;;;;15.93;100.00;99583.81;5392341;27;20062;-80
2023/09/21 07:50:22;;;;;;;8.00;4.13;;;;;;;15.98;100.00;99579.16;5373177;27;20280;-81
2023/09/21 07:52:55;;;;;;;5.93;3.20;;;;;;;16.03;100.00;99585.03;5384663;27;20022;-82
2023/09/21 07:55:27;;;;;;;7.05;3.20;;;;;;;16.07;100.00;99587.47;5392977;27;20015;-81
2023/09/21 07:57:59;;;;;;;7.38;3.53;;;;;;;16.07;100.00;99587.47;5393679;27;20023;-82
2023/09/21 08:00:31;;;;;;;6.03;3.87;;;;;;;16.08;100.00;99590.03;5375137;27;20057;-82
2023/09/21 08:03:02;;;;;;;9.57;4.60;;;;;;;16.14;100.00;99604.63;5374871;27;20037;-83
2023/09/21 08:05:34;;;;;;;7.27;4.13;;;;;;;16.17;100.00;99586.91;5374453;27;20038;-83
2023/09/21 08:08:05;;;;;;;7.63;4.53;;;;;;;16.26;100.00;99593.44;5374692;27;20030;-83
2023/09/21 08:10:37;;;;;;;9.30;3.67;;;;;;;16.30;100.00;99602.84;5338227;27;20031;-84
2023/09/21 08:13:08;;;;;;;7.20;3.90;;;;;;;16.25;100.00;99607.50;5356934;27;20060;-83
2023/09/21 08:15:39;;;;;;;8.70;3.27;;;;;;;16.27;100.00;99617.94;5355466;27;20393;-83
2023/09/21 08:18:11;;;;;;;5.10;3.43;;;;;;;16.15;100.00;99612.44;5373591;27;20458;-83
2023/09/21 08:20:42;;;;;;;6.57;3.73;;;;;;;16.16;100.00;99608.00;5356201;27;20110;-83
2023/09/21 08:23:14;;;;;;;6.50;3.83;;;;;;;16.02;100.00;99612.25;5374010;27;20034;-83
2023/09/21 08:25:46;;;;;;;6.55;3.38;;;;;;;16.06;100.00;99625.22;5373845;27;20046;-83
2023/09/21 08:28:17;;;;;;;6.20;3.53;;;;;;;16.03;100.00;99628.88;5356097;27;20529;-82
2023/09/21 08:30:49;;;;;;;4.87;3.80;;;;;;;16.00;100.00;99645.66;5373354;27;20141;-83
2023/09/21 08:33:21;;;;;;;6.93;4.13;;;;;;;15.98;100.00;99644.03;5374187;27;20062;-83
2023/09/21 08:35:52;;;;;;;6.20;4.10;;;;;;;15.97;100.00;99651.09;5373692;27;20023;-83
2023/09/21 08:38:24;;;;;;;6.17;3.60;;;;;;;15.95;100.00;99657.34;5374519;27;20037;-83
2023/09/21 08:40:55;;;;;;;5.07;4.23;;;;;;;15.86;100.00;99653.44;5374416;27;20027;-83
2023/09/21 08:43:28;;;;;;;4.43;3.20;;;;;;;15.79;100.00;99652.91;5338637;27;20072;-83
2023/09/21 08:46:00;;;;;;;5.55;3.00;;;;;;;15.78;100.00;99661.72;5359490;27;20062;-82
2023/09/21 08:48:33;;;;;;;3.50;3.20;;;;;;;15.79;100.00;99665.19;5378479;27;20485;-83
2023/09/21 08:51:10;;;;;;;3.55;2.75;;;;;;;15.73;100.00;99670.72;5377685;27;20027;-82
2023/09/21 08:53:41;;;;;;;3.97;3.00;;;;;;;15.70;100.00;99663.84;5378129;27;20094;-83
2023/09/21 08:56:13;;;;;;;3.33;2.58;;;;;;;15.62;100.00;99672.13;5379064;27;20106;-82
2023/09/21 08:58:46;;;;;;;5.27;2.97;;;;;;;15.55;100.00;99669.88;5360292;27;20031;-82
2023/09/21 09:01:18;;;;;;;5.78;2.92;;;;;;;15.50;100.00;99670.13;5377396;27;20481;-82
2023/09/21 09:03:51;;;;;;;;;;;;;;;15.59;100.00;99655.69;5356336;27;20031;-82
2023/09/21 09:06:24;;;;;;;5.22;2.60;;;;;;;15.52;100.00;99667.41;5375890;27;19907;-82
2023/09/21 09:08:56;;;;;;;6.03;2.58;;;;;;;15.72;100.00;99659.38;5356120;27;20466;-82
2023/09/21 09:11:44;;;;;;;3.35;1.98;;;;;;;15.85;100.00;99662.22;5374431;27;20041;-82
2023/09/21 09:14:18;;;;;;;5.47;2.25;;;;;;;15.73;100.00;99668.97;5375146;27;20566;-82
2023/09/21 09:16:49;;;;;;;2.95;2.30;;;;;;;15.73;100.00;99671.59;5374902;27;20175;-82
2023/09/21 09:19:21;;;;;;;4.20;2.38;;;;;;;15.94;100.00;99669.63;5374677;27;20034;-83
2023/09/21 09:21:52;;;;;;;3.07;2.20;;;;;;;16.02;100.00;99670.09;5356659;27;20029;-83
2023/09/21 09:24:28;;;;;;;4.87;2.10;;;;;;;16.30;100.00;99662.50;5375698;27;20101;-83
2023/09/21 09:27:00;;;;;;;4.18;1.98;;;;;;;16.18;100.00;99643.81;5375302;27;20045;-83
2023/09/21 09:29:33;;;;;;;2.77;2.13;;;;;;;16.32;100.00;99657.97;5355949;27;20088;-83
2023/09/21 09:32:05;;;;;;;3.05;2.20;;;;;;;16.44;100.00;99651.19;5376708;27;20083;-82
2023/09/21 09:34:37;;;;;;;3.90;2.33;;;;;;;16.41;100.00;99645.19;5374866;27;20027;-82
2023/09/21 09:37:12;;;;;;;3.95;2.13;;;;;;;16.47;100.00;99643.13;5355933;27;20358;-83
2023/09/21 09:39:44;;;;;;;4.05;1.90;;;;;;;16.42;100.00;99635.50;5355762;27;20034;-82
2023/09/21 09:42:17;;;;;;;4.50;2.30;;;;;;;16.55;100.00;99633.03;5375206;27;20030;-83
2023/09/21 09:44:51;;;;;;;4.00;2.30;;;;;;;16.69;100.00;99635.72;5373907;27;20035;-82
2023/09/21 09:47:25;;;;;;;2.85;2.22;;;;;;;16.76;100.00;99641.53;5372401;27;20076;-83
2023/09/21 09:49:58;;;;;;;2.65;1.90;;;;;;;17.05;100.00;99652.16;5353385;27;20112;-83
2023/09/21 09:52:30;;;;;;;4.72;2.20;;;;;;;17.12;100.00;99645.63;5373868;27;20019;-82
2023/09/21 09:55:01;;;;;;;3.67;2.15;;;;;;;17.13;100.00;99642.91;5372641;27;20034;-83
2023/09/21 09:57:33;;;;;;;2.93;2.20;;;;;;;17.04;100.00;99632.06;5372550;27;20102;-82
2023/09/21 10:00:20;;;;;;;3.70;2.67;;;;;;;17.13;100.00;99637.66;5356370;27;20037;-83
2023/09/21 10:02:53;;;;;;;3.83;2.45;;;;;;;17.08;100.00;99629.16;5357158;27;20465;-83
2023/09/21 10:05:27;;;;;;;4.10;2.67;;;;;;;17.19;100.00;99623.25;5354760;27;20034;-83
2023/09/21 10:08:00;;;;;;;3.55;2.83;;;;;;;17.27;100.00;99621.00;5354741;27;20119;-83
2023/09/21 10:10:44;;;;;;;4.18;2.63;;;;;;;17.37;100.00;99616.06;5374176;27;20142;-82
2023/09/21 10:13:16;;;;;;;3.53;2.80;;;;;;;17.49;100.00;99615.31;5356116;27;20063;-83
2023/09/21 10:15:48;;;;;;;;;;;;;;;17.79;100.00;99617.03;5393387;27;20038;-82
2023/09/21 10:18:35;;;;;;;3.70;2.75;;;;;;;17.65;100.00;99609.13;5395507;27;19903;-82
2023/09/21 10:21:34;;;;;;;4.35;3.38;;;;;;;17.86;100.00;99602.53;5388922;27;20430;-84
2023/09/21 10:24:16;;;;;;;4.47;3.28;;;;;;;17.91;100.00;99607.53;5372901;27;20027;-84
2023/09/21 10:26:51;;;;;;;4.47;3.05;;;;;;;17.97;100.00;99616.88;5372605;27;20046;-87
2023/09/21 10:29:36;;;;;;;9.20;3.00;;;;;;;18.10;100.00;99611.69;5372358;27;20501;-83
2023/09/21 10:32:11;;;;;;;4.28;3.03;;;;;;;18.16;100.00;99613.91;5375343;27;20089;-84
2023/09/21 10:34:48;;;;;;;4.13;2.83;;;;;;;18.11;100.00;99614.22;5355293;27;20029;-84
2023/09/21 10:37:29;;;;;;;3.92;2.33;;;;;;;18.08;100.00;99609.16;5378355;27;20027;-84
2023/09/21 10:40:07;;;;;;;5.55;2.75;;;;;;;18.02;100.00;99601.63;5368873;27;20033;-83
2023/09/21 10:42:39;;;;;;;4.45;2.50;;;;;;;18.00;100.00;99595.56;5386118;27;20030;-83
2023/09/21 10:45:11;;;;;;;5.47;2.53;;;;;;;18.08;100.00;99598.59;5378069;27;20122;-83
2023/09/21 10:47:51;;;;;;;3.97;2.40;;;;;;;18.17;100.00;99598.00;5371536;27;20486;-84
2023/09/21 10:50:23;;;;;;;5.85;2.53;;;;;;;18.28;100.00;99599.97;5371377;27;20030;-82
2023/09/21 10:52:55;;;;;;;3.25;1.92;;;;;;;18.33;100.00;99599.66;5371983;27;20038;-83
2023/09/21 10:55:27;;;;;;;5.53;2.03;;;;;;;18.29;100.00;99577.91;5372502;27;20083;-84
2023/09/21 10:58:00;;;;;;;3.63;2.07;;;;;;;18.27;100.00;99582.44;5371091;27;20031;-84
2023/09/21 11:00:33;;;;;;;3.47;2.20;;;;;;;18.22;100.00;99582.75;5371271;27;20031;-83
2023/09/21 11:03:04;;;;;;;;;;;;;;;18.36;100.00;99567.81;5371843;27;20070;-81
2023/09/21 11:05:35;;;;;;;3.45;2.22;;;;;;;18.40;100.00;99561.38;5371627;27;20362;-83
2023/09/21 11:08:08;;;;;;;3.37;2.00;;;;;;;18.49;100.00;99559.94;5352103;27;20110;-84
2023/09/21 11:10:42;;;;;;;2.00;1.70;;;;;;;18.56;100.00;99540.13;5371781;27;20047;-83
2023/09/21 11:13:17;;;;;;;4.63;2.00;;;;;;;18.67;100.00;99563.16;5372214;27;20033;-83
2023/09/21 11:15:54;;;;;;;2.78;1.90;;;;;;;18.75;100.00;99551.13;5373802;27;20031;-83
2023/09/21 11:18:28;;;;;;;3.85;2.10;;;;;;;18.78;98.76;99555.38;5371984;27;20078;-84
2023/09/21 11:21:00;;;;;;;3.22;1.90;;;;;;;18.76;97.94;99557.28;5372569;27;20026;-85
2023/09/21 11:23:32;;;;;;;5.30;1.97;;;;;;;18.71;98.94;99554.94;5372232;27;20034;-84
2023/09/21 11:26:05;;;;;;;3.15;2.20;;;;;;;18.64;96.67;99537.81;5372728;27;20058;-84
2023/09/21 11:28:37;;;;;;;3.58;2.03;;;;;;;18.53;97.53;99545.59;5372718;27;20038;-84
2023/09/21 11:31:12;;;;;;;2.85;1.90;;;;;;;18.49;97.83;99547.59;5371972;27;20035;-86
2023/09/21 11:33:43;;;;;;;4.32;1.95;;;;;;;18.44;97.90;99583.16;5371791;27;20037;-83
2023/09/21 11:36:15;;;;;;;4.33;1.73;;;;;;;18.20;100.00;99575.88;5353543;27;20027;-81
2023/09/21 11:38:46;;;;;;;3.07;2.23;;;;;;;17.81;100.00;99583.53;5371608;27;20033;-81
2023/09/21 11:41:18;;;;;;;2.45;1.70;;;;;;;17.39;100.00;99592.25;5371842;27;20030;-81
2023/09/21 11:43:49;;;;;;;3.17;2.07;;;;;;;17.04;100.00;99593.41;5371658;27;20041;-83
2023/09/21 11:46:21;;;;;;;3.20;2.10;;;;;;;16.79;100.00;99601.84;5352636;27;20345;-82
2023/09/21 11:48:53;;;;;;;3.25;2.03;;;;;;;16.46;100.00;99599.38;5371944;27;20050;-82
2023/09/21 11:51:28;;;;;;;2.53;1.83;;;;;;;16.30;100.00;99589.69;5353473;27;20481;-81
2023/09/21 11:54:00;;;;;;;3.72;1.77;;;;;;;16.20;100.00;99604.28;5372365;27;20303;-82
2023/09/21 11:56:31;;;;;;;3.87;1.93;;;;;;;16.10;100.00;99603.09;5372386;27;20062;-81
2023/09/21 11:59:06;;;;;;;1.70;1.60;;;;;;;16.18;100.00;99617.53;5373947;27;20042;-81